createdAt,value
2023-01-21T00:02:35.000Z,-0.37
2023-01-21T00:07:35.000Z,-0.47
2023-01-21T00:17:35.000Z,-0.39
2023-01-21T00:22:35.000Z,-0.37
2023-01-21T00:27:35.000Z,-0.46
2023-01-21T00:32:35.000Z,-0.48
2023-01-21T00:37:34.000Z,-0.45
2023-01-21T00:42:35.000Z,-0.49
2023-01-21T00:47:34.000Z,-0.5
2023-01-21T00:52:35.000Z,-0.44
2023-01-21T00:57:35.000Z,-0.53
2023-01-21T01:02:35.000Z,-0.53
2023-01-21T01:07:35.000Z,-0.52
2023-01-21T01:12:35.000Z,-0.51
2023-01-21T01:17:35.000Z,-0.6
2023-01-21T01:22:34.000Z,-0.66
2023-01-21T01:27:35.000Z,-0.68
2023-01-21T01:32:34.000Z,-0.7
2023-01-21T01:37:35.000Z,-0.77
2023-01-21T01:42:35.000Z,-0.83
2023-01-21T01:47:34.000Z,-0.83
2023-01-21T01:52:35.000Z,-0.93
2023-01-21T01:57:34.000Z,-0.88
2023-01-21T02:02:34.000Z,-0.94
2023-01-21T02:07:35.000Z,-0.98
2023-01-21T02:12:35.000Z,-0.9
2023-01-21T02:17:35.000Z,-0.9
2023-01-21T02:22:34.000Z,-0.92
2023-01-21T02:27:41.000Z,-0.88
2023-01-21T02:32:34.000Z,-0.81
2023-01-21T02:37:35.000Z,-0.91
2023-01-21T02:42:34.000Z,-1.05
2023-01-21T02:47:35.000Z,-1.16
2023-01-21T02:52:35.000Z,-1.15
2023-01-21T02:57:34.000Z,-1.2
2023-01-21T03:02:34.000Z,-1.23
2023-01-21T03:07:35.000Z,-1.22
2023-01-21T03:12:35.000Z,-1.23
2023-01-21T03:17:35.000Z,-1.27
2023-01-21T03:22:35.000Z,-1.33
2023-01-21T03:27:35.000Z,-1.37
2023-01-21T03:32:34.000Z,-1.37
2023-01-21T03:37:34.000Z,-1.45
2023-01-21T03:42:35.000Z,-1.61
2023-01-21T03:47:35.000Z,-1.77
2023-01-21T03:52:34.000Z,-1.78
2023-01-21T03:57:35.000Z,-1.86
2023-01-21T04:02:35.000Z,-1.86
2023-01-21T04:07:34.000Z,-1.94
2023-01-21T04:12:34.000Z,-2.03
2023-01-21T04:17:35.000Z,-2.1
2023-01-21T04:27:35.000Z,-2.18
2023-01-21T04:32:34.000Z,-2.18
2023-01-21T04:37:35.000Z,-2.16
2023-01-21T04:42:35.000Z,-2.15
2023-01-21T04:47:34.000Z,-2.27
2023-01-21T04:57:35.000Z,-2.43
2023-01-21T05:02:35.000Z,-2.47
2023-01-21T05:12:35.000Z,-2.51
2023-01-21T05:17:34.000Z,-2.62
2023-01-21T05:22:35.000Z,-2.6
2023-01-21T05:27:35.000Z,-2.59
2023-01-21T05:32:35.000Z,-2.57
2023-01-21T05:37:34.000Z,-2.62
2023-01-21T05:42:35.000Z,-2.65
2023-01-21T05:47:34.000Z,-2.69
2023-01-21T05:52:35.000Z,-2.74
2023-01-21T05:57:35.000Z,-2.74
2023-01-21T06:02:35.000Z,-2.74
2023-01-21T06:07:35.000Z,-2.66
2023-01-21T06:12:35.000Z,-2.52
2023-01-21T06:17:35.000Z,-2.49
2023-01-21T06:22:34.000Z,-2.55
2023-01-21T06:27:35.000Z,-2.6
2023-01-21T06:32:35.000Z,-2.61
2023-01-21T06:37:35.000Z,-2.53
2023-01-21T06:42:35.000Z,-2.45
2023-01-21T06:52:35.000Z,-2.4
2023-01-21T06:57:35.000Z,-2.29
2023-01-21T07:02:35.000Z,-2.24
2023-01-21T07:12:35.000Z,-2.29
2023-01-21T07:17:34.000Z,-2.22
2023-01-21T07:22:35.000Z,-2.19
2023-01-21T07:27:35.000Z,-2.09
2023-01-21T07:32:35.000Z,-1.91
2023-01-21T07:37:35.000Z,-1.85
2023-01-21T07:42:35.000Z,-1.64
2023-01-21T07:47:34.000Z,-1.81
2023-01-21T07:52:35.000Z,-1.79
2023-01-21T07:57:35.000Z,-1.8
2023-01-21T08:02:35.000Z,-1.61
2023-01-21T08:07:35.000Z,-1.61
2023-01-21T08:12:37.000Z,-1.58
2023-01-21T08:17:34.000Z,-1.35
2023-01-21T08:22:35.000Z,-1.33
2023-01-21T08:27:34.000Z,-1.34
2023-01-21T08:32:35.000Z,-1.42
2023-01-21T08:37:35.000Z,-1.38
2023-01-21T08:42:35.000Z,-1.4
2023-01-21T08:47:35.000Z,-1.57
2023-01-21T08:52:35.000Z,-1.4
2023-01-21T08:57:34.000Z,-1.34
2023-01-21T09:02:35.000Z,-1.34
2023-01-21T09:07:34.000Z,-1.49
2023-01-21T09:12:34.000Z,-1.49
2023-01-21T09:17:35.000Z,-1.44
2023-01-21T09:22:34.000Z,-1.44
2023-01-21T09:27:35.000Z,-1.34
2023-01-21T09:32:34.000Z,-1.51
2023-01-21T09:37:35.000Z,-1.69
2023-01-21T09:42:34.000Z,-1.72
2023-01-21T09:47:35.000Z,-1.66
2023-01-21T09:52:35.000Z,-1.38
2023-01-21T09:57:35.000Z,-1.35
2023-01-21T10:02:35.000Z,-1.29
2023-01-21T10:07:35.000Z,-1.13
2023-01-21T10:12:35.000Z,-1.06
2023-01-21T10:17:35.000Z,-1.04
2023-01-21T10:22:34.000Z,-0.97
2023-01-21T10:27:35.000Z,-1.19
2023-01-21T10:32:35.000Z,-1.19
2023-01-21T10:37:35.000Z,-1.2
2023-01-21T10:42:35.000Z,-1.23
2023-01-21T10:47:34.000Z,-1.14
2023-01-21T10:52:35.000Z,-1.17
2023-01-21T10:57:35.000Z,-1.08
2023-01-21T11:02:35.000Z,-1.01
2023-01-21T11:12:34.000Z,-0.99
2023-01-21T11:17:35.000Z,-0.76
2023-01-21T11:22:35.000Z,-0.63
2023-01-21T11:27:35.000Z,-0.71
2023-01-21T11:32:34.000Z,-0.9
2023-01-21T11:37:35.000Z,-1.03
2023-01-21T11:42:34.000Z,-1.09
2023-01-21T11:47:35.000Z,-1.29
2023-01-21T11:52:35.000Z,-1.34
2023-01-21T11:57:35.000Z,-1.26
2023-01-21T12:02:34.000Z,-1.26
2023-01-21T12:07:35.000Z,-1.24
2023-01-21T12:12:36.000Z,-1.3
2023-01-21T12:17:35.000Z,-1.33
2023-01-21T12:22:35.000Z,-1.37
2023-01-21T12:27:35.000Z,-1.45
2023-01-21T12:32:35.000Z,-1.38
2023-01-21T12:37:35.000Z,-1.44
2023-01-21T12:42:35.000Z,-1.47
2023-01-21T12:47:35.000Z,-1.57
2023-01-21T12:52:34.000Z,-1.63
2023-01-21T12:57:34.000Z,-1.59
2023-01-21T13:02:35.000Z,-1.63
2023-01-21T13:07:34.000Z,-1.71
2023-01-21T13:12:34.000Z,-1.83
2023-01-21T13:17:35.000Z,-1.83
2023-01-21T13:22:35.000Z,-1.8
2023-01-21T13:27:35.000Z,-1.88
2023-01-21T13:32:34.000Z,-1.93
2023-01-21T13:37:35.000Z,-1.89
2023-01-21T13:42:35.000Z,-1.84
2023-01-21T13:47:34.000Z,-1.88
2023-01-21T13:52:35.000Z,-1.98
2023-01-21T13:57:35.000Z,-2.07
2023-01-21T14:02:35.000Z,-2.14
2023-01-21T14:07:35.000Z,-2.22
2023-01-21T14:12:35.000Z,-2.25
2023-01-21T14:22:35.000Z,-2.25
2023-01-21T14:27:34.000Z,-2.14
2023-01-21T14:32:34.000Z,-2.2
2023-01-21T14:37:35.000Z,-2.27
2023-01-21T14:42:35.000Z,-2.27
2023-01-21T14:52:35.000Z,-2.43
2023-01-21T14:57:35.000Z,-2.55
2023-01-21T15:02:35.000Z,-2.63
2023-01-21T15:07:34.000Z,-2.71
2023-01-21T15:12:35.000Z,-2.77
2023-01-21T15:17:34.000Z,-2.78
2023-01-21T15:27:34.000Z,-2.78
2023-01-21T15:32:35.000Z,-2.85
2023-01-21T15:37:34.000Z,-2.95
2023-01-21T15:42:35.000Z,-3.06
2023-01-21T15:47:35.000Z,-3.13
2023-01-21T15:52:35.000Z,-3.17
2023-01-21T15:57:35.000Z,-3.17
2023-01-21T16:02:35.000Z,-3.17
2023-01-21T16:07:35.000Z,-3.15
2023-01-21T16:17:35.000Z,-3.19
2023-01-21T16:22:35.000Z,-3.22
2023-01-21T16:27:35.000Z,-3.24
2023-01-21T16:32:35.000Z,-3.23
2023-01-21T16:37:34.000Z,-3.3
2023-01-21T16:42:35.000Z,-3.33
2023-01-21T16:57:35.000Z,-3.33
2023-01-21T17:02:35.000Z,-3.38
2023-01-21T17:07:34.000Z,-3.35
2023-01-21T17:12:34.000Z,-3.27
2023-01-21T17:17:35.000Z,-3.33
2023-01-21T17:22:35.000Z,-3.4
2023-01-21T17:32:35.000Z,-3.47
2023-01-21T17:37:35.000Z,-3.58
2023-01-21T17:42:35.000Z,-3.65
2023-01-21T17:47:34.000Z,-3.68
2023-01-21T17:52:35.000Z,-3.71
2023-01-21T17:57:34.000Z,-3.8
2023-01-21T18:07:35.000Z,-3.86
2023-01-21T18:12:35.000Z,-3.91
2023-01-21T18:17:35.000Z,-4
2023-01-21T18:22:34.000Z,-4.02
2023-01-21T18:27:36.000Z,-4.09
2023-01-21T18:32:35.000Z,-4.13
2023-01-21T18:37:35.000Z,-4.16
2023-01-21T18:42:35.000Z,-4.25
2023-01-21T18:47:35.000Z,-4.32
2023-01-21T18:52:35.000Z,-4.36
2023-01-21T18:57:35.000Z,-4.43
2023-01-21T19:02:34.000Z,-4.41
2023-01-21T19:07:35.000Z,-4.4
2023-01-21T19:12:35.000Z,-4.4
2023-01-21T19:17:34.000Z,-4.4
2023-01-21T19:22:35.000Z,-4.43
2023-01-21T19:27:34.000Z,-4.53
2023-01-21T19:37:35.000Z,-4.66
2023-01-21T19:42:35.000Z,-4.68
2023-01-21T19:47:34.000Z,-4.75
2023-01-21T19:52:35.000Z,-4.69
2023-01-21T19:57:35.000Z,-4.69
2023-01-21T20:02:35.000Z,-4.54
2023-01-21T20:07:34.000Z,-4.54
2023-01-21T20:12:34.000Z,-4.43
2023-01-21T20:17:35.000Z,-4.42
2023-01-21T20:22:35.000Z,-4.37
2023-01-21T20:27:34.000Z,-4.23
2023-01-21T20:32:35.000Z,-4.35
2023-01-21T20:37:34.000Z,-4.41
2023-01-21T20:42:37.000Z,-4.39
2023-01-21T20:47:48.000Z,-4.36
2023-01-21T20:52:35.000Z,-4.32
2023-01-21T20:57:35.000Z,-4.32
2023-01-21T21:02:35.000Z,-4.33
2023-01-21T21:07:34.000Z,-4.27
2023-01-21T21:12:35.000Z,-4.27
2023-01-21T21:17:35.000Z,-4.32
2023-01-21T21:22:34.000Z,-4.26
2023-01-21T21:27:35.000Z,-4.26
2023-01-21T21:32:35.000Z,-4.3
2023-01-21T21:37:34.000Z,-4.18
2023-01-21T21:42:35.000Z,-4.25
2023-01-21T21:47:35.000Z,-4.29
2023-01-21T21:52:34.000Z,-4.23
2023-01-21T21:57:35.000Z,-4.17
2023-01-21T22:02:35.000Z,-4.13
2023-01-21T22:07:35.000Z,-4.08
2023-01-21T22:12:34.000Z,-3.99
2023-01-21T22:17:35.000Z,-3.99
2023-01-21T22:22:34.000Z,-4.02
2023-01-21T22:27:35.000Z,-4.05
2023-01-21T22:32:34.000Z,-3.95
2023-01-21T22:37:35.000Z,-3.83
2023-01-21T22:42:35.000Z,-3.85
2023-01-21T22:47:35.000Z,-3.89
2023-01-21T22:52:35.000Z,-3.77
2023-01-21T22:57:34.000Z,-3.8
2023-01-21T23:02:35.000Z,-3.68
2023-01-21T23:07:34.000Z,-3.48
2023-01-21T23:12:35.000Z,-3.39
2023-01-21T23:17:34.000Z,-3.37
2023-01-21T23:22:35.000Z,-3.36
2023-01-21T23:27:35.000Z,-3.26
2023-01-21T23:32:35.000Z,-3.26
2023-01-21T23:37:35.000Z,-3.28
2023-01-21T23:42:34.000Z,-3.22
2023-01-21T23:47:35.000Z,-3.39
2023-01-21T23:52:34.000Z,-3.55
2023-01-21T23:57:35.000Z,-3.59
